createdAt,value
2023-05-15T00:02:20.617Z,65.30
2023-05-15T00:04:51.852Z,65.60
2023-05-15T00:07:22.597Z,65.46
2023-05-15T00:09:53.311Z,65.69
2023-05-15T00:12:24.462Z,65.89
2023-05-15T00:14:55.012Z,67.10
2023-05-15T00:17:26.476Z,68.66
2023-05-15T00:19:58.550Z,68.39
2023-05-15T00:22:29.275Z,68.00
2023-05-15T00:24:59.790Z,69.25
2023-05-15T00:27:30.233Z,69.91
2023-05-15T00:30:00.756Z,70.48
2023-05-15T00:32:31.451Z,71.15
2023-05-15T00:35:01.994Z,71.44
2023-05-15T00:37:32.610Z,71.59
2023-05-15T00:40:03.470Z,71.52
2023-05-15T00:42:34.834Z,71.57
2023-05-15T00:45:08.644Z,71.27
2023-05-15T00:47:41.333Z,70.53
2023-05-15T00:50:12.702Z,70.18
2023-05-15T00:52:44.574Z,69.81
2023-05-15T00:55:15.188Z,69.67
2023-05-15T00:57:46.922Z,69.49
2023-05-15T01:00:19.002Z,69.35
2023-05-15T01:02:50.596Z,69.21
2023-05-15T01:05:21.454Z,69.18
2023-05-15T01:08:04.493Z,69.93
2023-05-15T01:10:36.163Z,70.22
2023-05-15T01:13:10.292Z,70.34
2023-05-15T01:15:41.704Z,70.47
2023-05-15T01:18:12.342Z,70.64
2023-05-15T01:20:57.987Z,70.90
2023-05-15T01:24:01.906Z,70.82
2023-05-15T01:27:01.238Z,71.11
2023-05-15T01:29:40.592Z,71.13
2023-05-15T01:32:19.137Z,71.11
2023-05-15T01:34:56.723Z,71.49
2023-05-15T01:37:29.811Z,71.44
2023-05-15T01:40:03.229Z,71.62
2023-05-15T01:42:36.374Z,71.94
2023-05-15T01:45:10.191Z,71.78
2023-05-15T01:47:45.976Z,71.60
2023-05-15T01:50:19.615Z,71.98
2023-05-15T01:52:57.842Z,72.26
2023-05-15T01:55:30.212Z,72.54
2023-05-15T01:58:03.651Z,72.49
2023-05-15T02:00:35.125Z,72.85
2023-05-15T02:03:07.692Z,72.72
2023-05-15T02:05:39.975Z,72.29
2023-05-15T02:08:11.937Z,72.18
2023-05-15T02:10:43.766Z,72.45
2023-05-15T02:13:15.453Z,72.63
2023-05-15T02:15:46.494Z,71.58
2023-05-15T02:18:17.436Z,71.42
2023-05-15T02:20:49.213Z,70.58
2023-05-15T02:23:21.334Z,71.22
2023-05-15T02:25:57.879Z,72.28
2023-05-15T02:28:49.675Z,73.32
2023-05-15T02:31:24.515Z,73.47
2023-05-15T02:34:01.199Z,73.46
2023-05-15T02:36:34.486Z,73.62
2023-05-15T02:39:05.483Z,73.19
2023-05-15T02:41:37.767Z,73.24
2023-05-15T02:44:09.364Z,73.83
2023-05-15T02:46:41.397Z,73.86
2023-05-15T02:49:13.058Z,71.92
2023-05-15T02:51:43.840Z,72.23
2023-05-15T02:54:15.263Z,71.78
2023-05-15T02:56:45.896Z,71.53
2023-05-15T02:59:18.026Z,71.94
2023-05-15T03:01:48.920Z,72.92
2023-05-15T03:04:19.548Z,73.21
2023-05-15T03:06:50.181Z,73.82
2023-05-15T03:09:20.995Z,73.94
2023-05-15T03:11:51.740Z,73.18
2023-05-15T03:14:22.268Z,73.51
2023-05-15T03:16:54.336Z,73.78
2023-05-15T03:19:25.111Z,71.57
2023-05-15T03:21:55.713Z,70.84
2023-05-15T03:24:26.429Z,71.33
2023-05-15T03:26:57.919Z,71.90
2023-05-15T03:29:28.539Z,73.13
2023-05-15T03:31:59.253Z,73.52
2023-05-15T03:34:29.780Z,74.25
2023-05-15T03:37:00.397Z,73.50
2023-05-15T03:39:31.125Z,73.71
2023-05-15T03:42:03.468Z,74.13
2023-05-15T03:44:33.971Z,74.26
2023-05-15T03:47:04.794Z,74.57
2023-05-15T03:49:36.844Z,74.72
2023-05-15T03:52:07.885Z,74.38
2023-05-15T03:54:38.734Z,74.28
2023-05-15T03:57:09.339Z,73.64
2023-05-15T03:59:40.028Z,73.52
2023-05-15T04:02:11.111Z,73.50
2023-05-15T04:04:47.749Z,73.47
2023-05-15T04:07:18.637Z,72.87
2023-05-15T04:09:49.166Z,72.03
2023-05-15T04:12:19.748Z,71.98
2023-05-15T04:14:52.161Z,71.87
2023-05-15T04:17:23.011Z,70.71
2023-05-15T04:19:56.291Z,70.55
2023-05-15T04:22:29.777Z,70.66
2023-05-15T04:25:00.444Z,70.06
2023-05-15T04:27:31.096Z,68.97
2023-05-15T04:30:02.030Z,68.58
2023-05-15T04:32:36.139Z,68.44
2023-05-15T04:35:12.814Z,67.73
2023-05-15T04:37:48.227Z,68.49
2023-05-15T04:40:19.061Z,67.90
2023-05-15T04:42:49.496Z,67.06
2023-05-15T04:45:20.056Z,66.97
2023-05-15T04:47:50.640Z,67.05
2023-05-15T04:50:21.354Z,66.85
2023-05-15T04:52:51.920Z,65.16
2023-05-15T04:55:22.491Z,65.57
2023-05-15T04:57:53.128Z,63.76
2023-05-15T05:00:24.077Z,61.16
2023-05-15T05:02:54.862Z,60.19
2023-05-15T05:05:26.196Z,56.89
2023-05-15T05:07:56.991Z,54.36
2023-05-15T05:10:27.380Z,53.59
2023-05-15T05:12:57.882Z,53.65
2023-05-15T05:15:28.516Z,53.56
2023-05-15T05:18:00.957Z,47.97
2023-05-15T05:20:31.577Z,42.98
2023-05-15T05:23:02.302Z,40.21
2023-05-15T05:25:34.400Z,37.87
2023-05-15T05:28:05.046Z,35.84
2023-05-15T05:30:35.664Z,37.01
2023-05-15T05:33:07.084Z,36.26
2023-05-15T05:35:37.770Z,34.77
2023-05-15T05:38:08.565Z,33.58
2023-05-15T05:40:39.376Z,34.44
2023-05-15T05:43:09.965Z,32.51
2023-05-15T05:45:41.059Z,30.65
2023-05-15T05:48:11.736Z,30.65
2023-05-15T05:50:43.601Z,29.82
2023-05-15T05:53:16.289Z,29.28
2023-05-15T05:55:47.790Z,29.43
2023-05-15T06:00:51.010Z,32.41
2023-05-15T06:03:22.284Z,35.49
2023-05-15T06:05:54.191Z,38.29
2023-05-15T06:08:29.636Z,38.87
2023-05-15T06:11:00.552Z,40.07
2023-05-15T06:13:31.082Z,40.87
2023-05-15T06:16:03.812Z,42.15
2023-05-15T06:18:34.513Z,42.93
2023-05-15T06:21:05.099Z,44.14
2023-05-15T06:23:40.636Z,47.04
2023-05-15T06:26:13.807Z,48.12
2023-05-15T06:28:46.923Z,49.06
2023-05-15T06:31:21.430Z,49.37
2023-05-15T06:33:55.455Z,50.31
2023-05-15T06:36:29.302Z,48.85
2023-05-15T06:38:59.965Z,48.99
2023-05-15T06:41:30.798Z,49.49
2023-05-15T06:44:02.395Z,50.27
2023-05-15T06:46:33.230Z,51.11
2023-05-15T06:49:04.183Z,51.44
2023-05-15T06:51:35.165Z,52.37
2023-05-15T06:54:06.906Z,52.84
2023-05-15T06:56:37.427Z,53.36
2023-05-15T06:59:08.202Z,53.50
2023-05-15T07:01:41.722Z,53.70
2023-05-15T07:04:15.220Z,53.17
2023-05-15T07:06:46.018Z,53.76
2023-05-15T07:09:18.522Z,53.89
2023-05-15T07:11:49.734Z,52.93
2023-05-15T07:14:20.650Z,52.34
2023-05-15T07:16:52.716Z,51.32
2023-05-15T07:19:24.677Z,51.82
2023-05-15T07:21:55.357Z,51.24
2023-05-15T07:24:26.189Z,50.08
2023-05-15T07:26:59.013Z,50.28
2023-05-15T07:29:30.001Z,50.92
2023-05-15T07:32:00.563Z,48.81
2023-05-15T07:34:31.658Z,49.26
2023-05-15T07:37:02.670Z,49.06
2023-05-15T07:39:33.610Z,48.41
2023-05-15T07:42:04.418Z,49.43
2023-05-15T07:44:35.432Z,48.41
2023-05-15T07:47:06.265Z,47.54
2023-05-15T07:49:36.796Z,47.29
2023-05-15T07:52:09.261Z,47.63
2023-05-15T07:54:41.914Z,47.28
2023-05-15T07:57:13.110Z,46.34
2023-05-15T07:59:46.733Z,46.62
2023-05-15T08:02:17.863Z,46.13
2023-05-15T08:04:48.446Z,46.03
2023-05-15T08:07:29.038Z,46.56
2023-05-15T08:10:00.232Z,46.88
2023-05-15T08:12:30.807Z,46.39
2023-05-15T08:15:01.540Z,46.99
2023-05-15T08:17:32.145Z,47.42
2023-05-15T08:20:04.795Z,45.82
2023-05-15T08:22:35.406Z,46.66
2023-05-15T08:25:07.124Z,46.75
2023-05-15T08:27:37.741Z,46.74
2023-05-15T08:30:12.568Z,48.05
2023-05-15T08:32:48.927Z,46.42
2023-05-15T08:35:20.672Z,47.37
2023-05-15T08:37:51.183Z,47.77
2023-05-15T08:40:34.435Z,47.95
2023-05-15T08:42:57.446Z,48.36
2023-05-15T08:45:29.020Z,48.56
2023-05-15T08:48:02.795Z,48.85
2023-05-15T08:50:33.655Z,49.02
2023-05-15T08:53:04.298Z,49.03
2023-05-15T08:55:35.753Z,48.93
2023-05-15T08:58:08.652Z,49.54
2023-05-15T09:00:41.537Z,49.12
2023-05-15T09:03:18.299Z,48.78
2023-05-15T09:05:52.158Z,48.47
2023-05-15T09:08:25.777Z,48.50
2023-05-15T09:10:59.632Z,50.34
2023-05-15T09:13:31.545Z,50.17
2023-05-15T09:16:06.268Z,50.06
2023-05-15T09:18:39.709Z,50.22
2023-05-15T09:21:27.853Z,49.50
2023-05-15T09:24:19.026Z,50.11
2023-05-15T09:27:04.637Z,50.68
2023-05-15T09:29:38.728Z,50.38
2023-05-15T09:32:11.596Z,50.78
2023-05-15T09:34:44.854Z,50.43
2023-05-15T09:37:34.907Z,49.84
2023-05-15T09:40:12.265Z,50.28
2023-05-15T09:42:42.791Z,49.89
2023-05-15T09:45:17.498Z,50.27
2023-05-15T09:47:48.419Z,49.56
2023-05-15T09:50:23.918Z,48.94
2023-05-15T09:52:57.629Z,48.66
2023-05-15T09:55:28.539Z,49.04
2023-05-15T09:58:08.356Z,49.32
2023-05-15T10:00:48.658Z,49.81
2023-05-15T10:03:13.132Z,49.76
2023-05-15T10:05:44.472Z,50.07
2023-05-15T10:08:15.856Z,49.83
2023-05-15T10:10:46.891Z,49.60
2023-05-15T10:13:18.136Z,49.69
2023-05-15T10:15:49.707Z,49.10
2023-05-15T10:18:24.991Z,47.06
2023-05-15T10:20:57.626Z,46.59
2023-05-15T10:23:30.285Z,47.03
2023-05-15T10:26:03.797Z,47.18
2023-05-15T10:28:36.229Z,47.37
2023-05-15T10:31:08.044Z,46.67
2023-05-15T10:33:39.768Z,47.02
2023-05-15T10:36:11.079Z,46.61
2023-05-15T10:38:42.856Z,46.56
2023-05-15T10:41:17.326Z,47.16
2023-05-15T10:43:47.619Z,47.72
2023-05-15T10:46:18.478Z,47.29
2023-05-15T10:48:49.193Z,47.93
2023-05-15T10:51:21.771Z,49.17
2023-05-15T10:53:53.488Z,50.11
2023-05-15T10:56:35.076Z,50.34
2023-05-15T10:59:08.564Z,51.85
2023-05-15T11:01:41.632Z,53.12
2023-05-15T11:04:20.018Z,54.97
2023-05-15T11:06:58.498Z,54.42
2023-05-15T11:09:37.752Z,51.90
2023-05-15T11:12:11.803Z,50.33
2023-05-15T11:14:45.925Z,50.68
2023-05-15T11:17:17.615Z,51.66
2023-05-15T11:19:54.696Z,49.11
2023-05-15T11:22:40.122Z,48.17
2023-05-15T11:25:16.894Z,49.92
2023-05-15T11:27:50.358Z,45.55
2023-05-15T11:30:22.732Z,44.12
2023-05-15T11:32:59.347Z,45.17
2023-05-15T11:35:32.638Z,45.22
2023-05-15T11:38:14.998Z,45.16
2023-05-15T11:40:49.115Z,44.60
2023-05-15T11:43:27.556Z,43.98
2023-05-15T11:45:59.904Z,44.20
2023-05-15T11:48:35.996Z,43.57
2023-05-15T11:51:08.436Z,43.65
2023-05-15T11:53:40.922Z,44.25
2023-05-15T11:56:21.244Z,44.82
2023-05-15T11:58:54.167Z,45.10
2023-05-15T12:01:25.034Z,45.34
2023-05-15T12:03:55.938Z,44.36
2023-05-15T12:06:27.837Z,44.48
2023-05-15T12:08:58.398Z,44.82
2023-05-15T12:11:28.890Z,45.07
2023-05-15T12:14:00.068Z,43.89
2023-05-15T12:16:30.825Z,44.07
2023-05-15T12:19:01.702Z,43.72
2023-05-15T12:21:32.453Z,43.97
2023-05-15T12:24:08.073Z,43.35
2023-05-15T12:26:36.759Z,43.18
2023-05-15T12:29:07.843Z,43.61
2023-05-15T12:31:39.838Z,42.75
2023-05-15T12:34:11.381Z,42.66
2023-05-15T12:36:43.043Z,42.99
2023-05-15T12:39:14.687Z,42.18
2023-05-15T12:41:47.704Z,43.36
2023-05-15T12:44:21.664Z,42.68
2023-05-15T12:46:55.539Z,42.56
2023-05-15T12:49:26.163Z,41.34
2023-05-15T12:51:56.788Z,42.07
2023-05-15T12:54:27.256Z,41.77
2023-05-15T12:56:58.061Z,40.51
2023-05-15T12:59:29.656Z,40.04
2023-05-15T13:02:00.562Z,38.70
2023-05-15T13:04:37.480Z,39.30
2023-05-15T13:07:08.575Z,39.49
2023-05-15T13:09:41.079Z,38.69
2023-05-15T13:12:13.256Z,40.40
2023-05-15T13:14:43.711Z,39.41
2023-05-15T13:17:15.582Z,38.85
2023-05-15T13:19:46.215Z,39.14
2023-05-15T13:22:16.772Z,37.82
2023-05-15T13:24:47.744Z,37.71
2023-05-15T13:27:18.263Z,37.81
2023-05-15T13:29:48.852Z,37.21
2023-05-15T13:32:19.324Z,36.38
2023-05-15T13:34:50.539Z,37.20
2023-05-15T13:37:21.002Z,39.14
2023-05-15T13:39:51.458Z,46.54
2023-05-15T13:42:21.958Z,49.45
2023-05-15T13:44:52.416Z,51.51
2023-05-15T13:47:22.965Z,53.10
2023-05-15T13:49:54.017Z,54.59
2023-05-15T13:52:24.772Z,56.61
2023-05-15T13:54:55.970Z,58.11
2023-05-15T13:57:27.237Z,58.89
2023-05-15T13:59:57.788Z,59.75
2023-05-15T14:02:28.768Z,59.47
2023-05-15T14:04:59.470Z,60.60
2023-05-15T14:07:29.981Z,62.39
2023-05-15T14:10:00.622Z,62.45
2023-05-15T14:12:32.242Z,61.57
2023-05-15T14:15:02.807Z,62.01
2023-05-15T14:17:33.319Z,62.13
2023-05-15T14:20:05.450Z,62.97
2023-05-15T14:22:36.138Z,63.27
2023-05-15T14:25:08.308Z,62.17
2023-05-15T14:27:38.871Z,62.22
2023-05-15T14:30:10.453Z,61.97
2023-05-15T14:32:41.517Z,61.85
2023-05-15T14:35:12.140Z,63.15
2023-05-15T14:37:45.274Z,63.37
2023-05-15T14:40:15.921Z,62.78
2023-05-15T14:42:46.568Z,61.97
2023-05-15T14:45:18.109Z,62.11
2023-05-15T14:47:48.644Z,61.58
2023-05-15T14:50:19.239Z,61.34
2023-05-15T14:52:49.663Z,60.42
2023-05-15T14:55:24.043Z,59.96
2023-05-15T14:57:54.577Z,58.42
2023-05-15T15:00:25.372Z,57.85
2023-05-15T15:02:57.833Z,58.26
2023-05-15T15:05:28.637Z,56.79
2023-05-15T15:08:07.726Z,58.07
2023-05-15T15:10:39.938Z,56.97
2023-05-15T15:13:13.672Z,56.83
2023-05-15T15:15:44.464Z,57.16
2023-05-15T15:18:15.109Z,56.43
2023-05-15T15:20:45.717Z,55.35
2023-05-15T15:23:16.399Z,54.87
2023-05-15T15:25:47.008Z,55.02
2023-05-15T15:28:17.505Z,56.41
2023-05-15T15:30:47.990Z,56.52
2023-05-15T15:33:18.513Z,57.01
2023-05-15T15:35:50.933Z,56.86
2023-05-15T15:38:21.435Z,55.77
2023-05-15T15:40:52.241Z,56.91
2023-05-15T15:43:32.297Z,57.43
2023-05-15T15:46:03.908Z,56.57
2023-05-15T15:48:34.530Z,55.93
2023-05-15T15:51:05.972Z,53.99
2023-05-15T15:53:37.692Z,52.56
2023-05-15T15:56:08.781Z,52.18
2023-05-15T15:58:39.321Z,52.49
2023-05-15T16:01:09.947Z,53.42
2023-05-15T16:03:40.466Z,53.42
2023-05-15T16:06:11.162Z,53.30
2023-05-15T16:08:41.681Z,53.75
2023-05-15T16:11:12.217Z,54.00
2023-05-15T16:13:42.779Z,54.40
2023-05-15T16:16:13.414Z,54.06
2023-05-15T16:18:44.645Z,54.85
2023-05-15T16:21:15.381Z,55.40
2023-05-15T16:23:45.807Z,56.61
2023-05-15T16:26:16.272Z,57.22
2023-05-15T16:28:55.229Z,57.27
2023-05-15T16:31:28.130Z,57.48
2023-05-15T16:34:03.780Z,57.23
2023-05-15T16:36:34.447Z,57.56
2023-05-15T16:39:05.163Z,57.94
2023-05-15T16:41:35.851Z,57.39
2023-05-15T16:44:08.018Z,56.69
2023-05-15T16:46:39.386Z,56.17
2023-05-15T16:49:09.786Z,55.75
2023-05-15T16:51:40.276Z,55.86
2023-05-15T16:54:10.733Z,55.57
2023-05-15T16:56:41.247Z,55.81
2023-05-15T16:59:13.634Z,56.24
2023-05-15T17:01:44.084Z,56.32
2023-05-15T17:04:14.630Z,56.91
2023-05-15T17:06:45.100Z,57.78
2023-05-15T17:09:16.064Z,57.48
2023-05-15T17:11:47.872Z,57.48
2023-05-15T17:14:20.165Z,57.70
2023-05-15T17:16:53.592Z,58.13
2023-05-15T17:19:25.783Z,58.52
2023-05-15T17:21:56.893Z,59.03
2023-05-15T17:24:35.564Z,59.20
2023-05-15T17:26:59.719Z,59.87
2023-05-15T17:29:30.196Z,60.07
2023-05-15T17:32:00.633Z,60.41
2023-05-15T17:34:31.330Z,61.20
2023-05-15T17:37:01.877Z,61.31
2023-05-15T17:39:32.621Z,61.76
2023-05-15T17:42:03.243Z,62.05
2023-05-15T17:44:35.417Z,61.58
2023-05-15T17:47:07.264Z,62.16
2023-05-15T17:49:39.526Z,61.50
2023-05-15T17:52:10.219Z,62.38
2023-05-15T17:54:41.132Z,62.41
2023-05-15T17:57:13.821Z,62.55
2023-05-15T17:59:44.529Z,62.44
2023-05-15T18:02:15.045Z,62.49
2023-05-15T18:04:45.877Z,63.12
2023-05-15T18:07:22.512Z,63.23
2023-05-15T18:09:49.904Z,63.71
2023-05-15T18:12:22.448Z,64.08
2023-05-15T18:14:53.031Z,64.64
2023-05-15T18:17:23.578Z,64.97
2023-05-15T18:19:54.059Z,65.16
2023-05-15T18:22:24.706Z,65.43
2023-05-15T18:24:58.178Z,65.19
2023-05-15T18:27:30.363Z,65.62
2023-05-15T18:30:06.016Z,65.85
2023-05-15T18:32:37.058Z,65.87
2023-05-15T18:35:08.823Z,66.05
2023-05-15T18:37:40.638Z,66.08
2023-05-15T18:40:11.914Z,66.27
2023-05-15T18:42:45.499Z,66.38
2023-05-15T18:45:16.379Z,66.08
2023-05-15T18:47:53.023Z,66.40
2023-05-15T18:50:28.202Z,66.13
2023-05-15T18:53:00.213Z,65.81
2023-05-15T18:55:33.832Z,65.84
2023-05-15T18:58:04.493Z,65.60
2023-05-15T19:00:38.700Z,65.52
2023-05-15T19:03:09.058Z,65.31
2023-05-15T19:05:43.198Z,64.69
2023-05-15T19:08:14.848Z,64.60
2023-05-15T19:10:51.071Z,64.73
2023-05-15T19:13:23.296Z,65.40
2023-05-15T19:15:54.347Z,66.61
2023-05-15T19:18:26.809Z,67.79
2023-05-15T19:20:58.975Z,68.08
2023-05-15T19:23:29.774Z,69.01
2023-05-15T19:26:03.075Z,69.21
2023-05-15T19:28:33.807Z,70.26
2023-05-15T19:31:14.077Z,71.11
2023-05-15T19:33:39.530Z,71.49
2023-05-15T19:36:13.715Z,71.61
2023-05-15T19:38:45.676Z,72.52
2023-05-15T19:41:17.694Z,72.74
2023-05-15T19:43:50.917Z,72.35
2023-05-15T19:46:25.728Z,72.53
2023-05-15T19:48:56.309Z,72.78
2023-05-15T19:51:26.918Z,72.94
2023-05-15T19:53:59.297Z,73.11
2023-05-15T19:56:30.866Z,73.18
2023-05-15T19:59:02.774Z,73.21
2023-05-15T20:01:33.377Z,73.66
2023-05-15T20:04:06.923Z,73.09
2023-05-15T20:06:38.836Z,73.30
2023-05-15T20:09:09.824Z,72.77
2023-05-15T20:11:42.165Z,73.05
2023-05-15T20:14:14.636Z,73.23
2023-05-15T20:16:45.565Z,73.30
2023-05-15T20:19:17.988Z,73.61
2023-05-15T20:21:52.749Z,73.82
2023-05-15T20:24:24.946Z,73.45
2023-05-15T20:26:57.484Z,73.84
2023-05-15T20:29:29.736Z,73.77
2023-05-15T20:32:00.585Z,74.32
2023-05-15T20:34:32.928Z,74.00
2023-05-15T20:37:05.637Z,73.88
2023-05-15T20:39:36.578Z,73.86
2023-05-15T20:42:08.392Z,73.86
2023-05-15T20:44:39.604Z,73.79
2023-05-15T20:47:10.259Z,73.44
2023-05-15T20:49:42.324Z,73.94
2023-05-15T20:52:16.380Z,73.85
2023-05-15T20:54:47.156Z,73.42
2023-05-15T20:57:17.632Z,73.40
2023-05-15T20:59:48.082Z,73.55
2023-05-15T21:02:18.653Z,73.45
2023-05-15T21:04:48.997Z,73.53
2023-05-15T21:07:20.144Z,73.91
2023-05-15T21:09:50.708Z,74.34
2023-05-15T21:12:22.469Z,74.87
2023-05-15T21:14:52.856Z,74.35
2023-05-15T21:17:23.409Z,75.04
2023-05-15T21:19:54.490Z,74.85
2023-05-15T21:22:25.280Z,74.76
2023-05-15T21:24:55.977Z,73.95
2023-05-15T21:27:26.595Z,73.82
2023-05-15T21:29:57.180Z,73.89
2023-05-15T21:32:27.840Z,73.86
2023-05-15T21:34:58.755Z,73.87
2023-05-15T21:37:29.476Z,73.86
2023-05-15T21:39:59.879Z,74.07
2023-05-15T21:42:32.248Z,74.34
2023-05-15T21:45:04.847Z,74.16
2023-05-15T21:47:34.834Z,74.52
2023-05-15T21:50:09.217Z,74.71
2023-05-15T21:52:39.802Z,74.50
2023-05-15T21:55:11.944Z,74.31
2023-05-15T21:57:42.434Z,74.28
2023-05-15T22:00:14.064Z,74.28
2023-05-15T22:02:44.868Z,74.59
2023-05-15T22:05:17.245Z,74.56
2023-05-15T22:07:47.702Z,74.74
2023-05-15T22:10:18.633Z,75.00
2023-05-15T22:12:49.530Z,75.10
2023-05-15T22:15:20.131Z,75.04
2023-05-15T22:17:50.636Z,74.91
2023-05-15T22:20:23.612Z,75.02
2023-05-15T22:22:54.404Z,75.18
2023-05-15T22:25:25.064Z,75.19
2023-05-15T22:27:55.684Z,75.76
2023-05-15T22:30:26.290Z,76.86
2023-05-15T22:32:57.138Z,77.94
2023-05-15T22:35:28.267Z,78.28
2023-05-15T22:37:59.220Z,79.05
2023-05-15T22:40:29.689Z,79.05
2023-05-15T22:43:00.226Z,79.23
2023-05-15T22:45:31.170Z,79.78
2023-05-15T22:48:01.848Z,80.58
2023-05-15T22:50:32.287Z,80.63
2023-05-15T22:53:02.853Z,80.63
2023-05-15T22:55:33.601Z,80.63
2023-05-15T22:58:04.192Z,80.99
2023-05-15T23:00:35.229Z,80.80
2023-05-15T23:03:06.128Z,80.91
2023-05-15T23:05:36.926Z,80.91
2023-05-15T23:08:07.760Z,81.18
2023-05-15T23:10:39.584Z,81.18
2023-05-15T23:13:10.279Z,81.33
2023-05-15T23:15:41.255Z,81.58
2023-05-15T23:18:11.726Z,81.47
2023-05-15T23:20:42.829Z,81.55
2023-05-15T23:23:13.561Z,81.65
2023-05-15T23:25:44.195Z,81.82
2023-05-15T23:28:14.836Z,81.53
2023-05-15T23:30:45.457Z,81.78
2023-05-15T23:33:17.617Z,81.90
2023-05-15T23:35:48.153Z,81.79
2023-05-15T23:38:18.685Z,81.64
2023-05-15T23:40:49.381Z,81.12
2023-05-15T23:43:19.902Z,80.91
2023-05-15T23:45:50.756Z,80.93
2023-05-15T23:48:21.233Z,81.14
2023-05-15T23:50:52.462Z,81.33
2023-05-15T23:53:23.251Z,81.33
2023-05-15T23:55:53.790Z,81.41
2023-05-15T23:58:24.286Z,81.43
